Time;durP1;ratioP1;P1;durP2;ratioP2;P2;SDS_P1;SDS_P2;PMS_P1;PMS_P2;Temp;Humidity;BMP_temperature;BMP_pressure;BME280_temperature;BME280_humidity;BME280_pressure;Samples;Min_cycle;Max_cycle;Signal;HPM_P1;HPM_P2
2021/08/19 00:01:32;;;;;;;15.15;5.85;;;;;;;;;;5074315;28;20400;-58
2021/08/19 00:03:57;;;;;;;7.85;4.57;;;;;;;;;;5076128;28;20051;-58
2021/08/19 00:06:22;;;;;;;7.28;5.03;;;;;;;;;;5072551;28;20048;-58
2021/08/19 00:08:48;;;;;;;10.35;5.43;;;;;;;;;;5074225;28;20082;-58
2021/08/19 00:11:13;;;;;;;10.02;5.15;;;;;;;;;;5079729;28;20024;-58
2021/08/19 00:13:39;;;;;;;8.93;4.15;;;;;;;;;;5075470;28;20054;-58
2021/08/19 00:16:06;;;;;;;8.73;4.55;;;;;;;;;;5076885;28;20043;-58
2021/08/19 00:18:31;;;;;;;8.50;4.07;;;;;;;;;;5071478;28;20032;-58
2021/08/19 00:20:57;;;;;;;9.90;4.38;;;;;;;;;;5074786;28;20549;-58
2021/08/19 00:23:22;;;;;;;12.98;4.97;;;;;;;;;;5078914;28;20036;-58
2021/08/19 00:25:47;;;;;;;9.70;5.28;;;;;;;;;;5073595;28;20391;-58
2021/08/19 00:28:13;;;;;;;10.77;5.45;;;;;;;;;;5076581;28;20025;-58
2021/08/19 00:30:38;;;;;;;9.10;5.47;;;;;;;;;;5077490;28;20028;-57
2021/08/19 00:33:04;;;;;;;8.30;4.78;;;;;;;;;;5072948;28;20468;-58
2021/08/19 00:35:29;;;;;;;17.73;6.82;;;;;;;;;;5077950;28;20016;-58
2021/08/19 00:37:55;;;;;;;9.13;4.88;;;;;;;;;;5076727;28;20021;-58
2021/08/19 00:40:20;;;;;;;9.63;5.07;;;;;;;;;;5074485;28;20086;-58
2021/08/19 00:42:46;;;;;;;10.25;5.20;;;;;;;;;;5071627;28;20047;-58
2021/08/19 00:45:11;;;;;;;12.20;6.43;;;;;;;;;;5072288;28;20028;-58
2021/08/19 00:47:38;;;;;;;10.25;4.97;;;;;;;;;;5072111;28;20031;-58
2021/08/19 00:50:04;;;;;;;9.90;5.75;;;;;;;;;;5071891;28;20020;-58
2021/08/19 00:52:30;;;;;;;16.90;5.20;;;;;;;;;;5070617;28;20055;-58
2021/08/19 00:54:55;;;;;;;13.77;6.18;;;;;;;;;;5075210;28;20048;-58
2021/08/19 00:57:21;;;;;;;11.55;4.78;;;;;;;;;;5069979;28;20028;-59
2021/08/19 00:59:47;;;;;;;7.32;4.53;;;;;;;;;;5080144;28;20522;-61
2021/08/19 01:02:12;;;;;;;7.25;3.75;;;;;;;;;;5074810;28;20048;-58
2021/08/19 01:04:38;;;;;;;8.20;4.88;;;;;;;;;;5072527;28;20035;-58
2021/08/19 01:07:07;;;;;;;4.88;3.67;;;;;;;;;;5072238;28;20077;-58
2021/08/19 01:09:32;;;;;;;10.27;4.50;;;;;;;;;;5072390;28;20047;-58
2021/08/19 01:11:58;;;;;;;11.73;5.93;;;;;;;;;;5075979;28;20126;-58
2021/08/19 01:14:23;;;;;;;7.45;4.07;;;;;;;;;;5072473;28;20032;-58
2021/08/19 01:16:49;;;;;;;13.57;5.30;;;;;;;;;;5076688;28;20020;-58
2021/08/19 01:19:15;;;;;;;9.65;3.50;;;;;;;;;;5070884;28;20527;-58
2021/08/19 01:21:41;;;;;;;22.30;5.93;;;;;;;;;;5071056;28;20023;-58
2021/08/19 01:24:07;;;;;;;9.02;5.38;;;;;;;;;;5069823;28;20065;-58
2021/08/19 01:26:32;;;;;;;15.98;5.60;;;;;;;;;;5075064;28;20505;-58
2021/08/19 01:28:57;;;;;;;14.00;6.40;;;;;;;;;;5076729;28;20021;-58
2021/08/19 01:31:24;;;;;;;10.45;4.80;;;;;;;;;;5068971;28;20382;-58
2021/08/19 01:33:50;;;;;;;9.60;3.97;;;;;;;;;;5074279;28;20021;-58
2021/08/19 01:36:15;;;;;;;8.60;5.10;;;;;;;;;;5075369;28;20487;-58
2021/08/19 01:38:41;;;;;;;6.22;4.88;;;;;;;;;;5072111;28;20060;-59
2021/08/19 01:41:07;;;;;;;7.70;4.45;;;;;;;;;;5073590;28;20109;-58
2021/08/19 01:43:33;;;;;;;5.90;4.47;;;;;;;;;;5072190;28;20072;-59
2021/08/19 01:45:59;;;;;;;10.25;4.45;;;;;;;;;;5072378;28;20036;-58
2021/08/19 01:48:25;;;;;;;8.70;3.97;;;;;;;;;;5075652;28;20463;-58
2021/08/19 01:50:50;;;;;;;11.05;5.70;;;;;;;;;;5072709;28;20086;-58
2021/08/19 01:53:16;;;;;;;8.40;5.07;;;;;;;;;;5064358;28;20520;-58
2021/08/19 01:55:42;;;;;;;8.90;4.50;;;;;;;;;;5071612;28;20033;-58
2021/08/19 01:58:08;;;;;;;7.95;4.78;;;;;;;;;;5082227;28;20585;-59
2021/08/19 02:00:33;;;;;;;11.52;6.15;;;;;;;;;;5074880;28;20118;-58
2021/08/19 02:03:02;;;;;;;12.60;4.80;;;;;;;;;;5076381;28;20052;-59
2021/08/19 02:05:27;;;;;;;8.18;4.50;;;;;;;;;;5077779;28;20024;-58
2021/08/19 02:07:52;;;;;;;8.30;4.63;;;;;;;;;;5077565;28;20024;-58
2021/08/19 02:10:17;;;;;;;8.65;3.95;;;;;;;;;;5077476;28;20020;-58
2021/08/19 02:12:43;;;;;;;8.02;4.22;;;;;;;;;;5075549;28;20570;-58
2021/08/19 02:15:08;;;;;;;8.68;4.10;;;;;;;;;;5076820;28;20055;-58
2021/08/19 02:17:34;;;;;;;8.43;5.10;;;;;;;;;;5078043;28;20141;-58
2021/08/19 02:19:59;;;;;;;8.05;5.57;;;;;;;;;;5077015;28;20028;-58
2021/08/19 02:22:24;;;;;;;5.57;4.72;;;;;;;;;;5079157;28;20503;-58
2021/08/19 02:24:50;;;;;;;9.40;4.40;;;;;;;;;;5074790;28;20020;-58
2021/08/19 02:27:15;;;;;;;9.13;5.40;;;;;;;;;;5075575;28;20142;-59
2021/08/19 02:29:40;;;;;;;25.25;6.00;;;;;;;;;;5076104;28;20024;-57
2021/08/19 02:32:06;;;;;;;8.98;5.95;;;;;;;;;;5076869;28;20049;-58
2021/08/19 02:34:31;;;;;;;9.95;6.43;;;;;;;;;;5072263;28;20486;-58
2021/08/19 02:36:56;;;;;;;7.18;5.38;;;;;;;;;;5077294;28;20024;-58
2021/08/19 02:39:21;;;;;;;7.95;4.63;;;;;;;;;;5075689;28;20440;-59
2021/08/19 02:41:47;;;;;;;8.38;4.90;;;;;;;;;;5074266;28;20035;-58
2021/08/19 02:44:12;;;;;;;6.43;4.00;;;;;;;;;;5075728;28;20019;-58
2021/08/19 02:46:37;;;;;;;6.43;3.97;;;;;;;;;;5079165;28;20031;-58
2021/08/19 02:49:03;;;;;;;6.05;5.35;;;;;;;;;;5076597;28;20030;-58
2021/08/19 02:51:28;;;;;;;13.52;6.18;;;;;;;;;;5072867;28;20376;-58
2021/08/19 02:53:53;;;;;;;7.30;4.63;;;;;;;;;;5077164;28;20107;-58
2021/08/19 02:56:19;;;;;;;7.93;3.35;;;;;;;;;;5074562;28;20032;-58
2021/08/19 02:58:44;;;;;;;11.07;4.78;;;;;;;;;;5073537;28;20023;-58
2021/08/19 03:01:09;;;;;;;4.68;3.45;;;;;;;;;;5075127;28;20167;-59
2021/08/19 03:03:35;;;;;;;5.43;3.55;;;;;;;;;;5075370;28;20052;-58
2021/08/19 03:06:00;;;;;;;8.57;3.95;;;;;;;;;;5079685;28;20032;-58
2021/08/19 03:08:25;;;;;;;15.05;4.70;;;;;;;;;;5079532;28;20027;-58
2021/08/19 03:10:51;;;;;;;10.90;4.65;;;;;;;;;;5078264;28;20070;-58
2021/08/19 03:13:16;;;;;;;8.38;5.28;;;;;;;;;;5073128;28;20572;-59
2021/08/19 03:15:41;;;;;;;6.95;4.18;;;;;;;;;;5075954;28;20009;-58
2021/08/19 03:18:06;;;;;;;4.47;3.42;;;;;;;;;;5075213;28;20017;-58
2021/08/19 03:20:32;;;;;;;5.47;4.25;;;;;;;;;;5076780;28;20682;-58
2021/08/19 03:22:57;;;;;;;4.47;3.80;;;;;;;;;;5075985;28;20059;-58
2021/08/19 03:25:22;;;;;;;10.25;5.07;;;;;;;;;;5074366;28;20028;-58
2021/08/19 03:27:49;;;;;;;7.68;5.20;;;;;;;;;;5073226;28;20121;-58
2021/08/19 03:30:15;;;;;;;9.98;5.43;;;;;;;;;;5070372;28;20065;-58
2021/08/19 03:32:40;;;;;;;9.43;5.60;;;;;;;;;;5071196;28;20493;-59
2021/08/19 03:35:06;;;;;;;8.13;4.32;;;;;;;;;;5079729;28;20032;-58
2021/08/19 03:37:32;;;;;;;10.35;4.88;;;;;;;;;;5077350;28;20013;-58
2021/08/19 03:39:57;;;;;;;11.57;4.45;;;;;;;;;;5065963;28;20491;-58
2021/08/19 03:42:22;;;;;;;9.85;4.38;;;;;;;;;;5077962;28;20062;-59
2021/08/19 03:44:48;;;;;;;8.35;5.05;;;;;;;;;;5074239;28;20510;-59
2021/08/19 03:47:14;;;;;;;7.35;5.22;;;;;;;;;;5071462;28;20067;-59
2021/08/19 03:49:39;;;;;;;6.82;4.80;;;;;;;;;;5077020;28;20043;-58
2021/08/19 03:52:04;;;;;;;8.10;4.75;;;;;;;;;;5073654;28;20103;-58
2021/08/19 03:54:30;;;;;;;19.80;5.25;;;;;;;;;;5073140;28;20066;-58
2021/08/19 03:56:55;;;;;;;18.75;6.93;;;;;;;;;;5076481;28;20016;-58
2021/08/19 03:59:21;;;;;;;6.45;3.85;;;;;;;;;;5074365;28;20079;-58
2021/08/19 04:01:47;;;;;;;11.93;6.43;;;;;;;;;;5067067;28;20025;-58
2021/08/19 04:04:12;;;;;;;14.30;5.10;;;;;;;;;;5076676;28;20073;-57
2021/08/19 04:06:37;;;;;;;11.52;5.40;;;;;;;;;;5074599;28;20084;-58
2021/08/19 04:09:03;;;;;;;7.63;4.38;;;;;;;;;;5072228;28;20020;-58
2021/08/19 04:11:28;;;;;;;3.75;3.25;;;;;;;;;;5073487;28;20024;-58
2021/08/19 04:13:53;;;;;;;6.15;3.63;;;;;;;;;;5076645;28;20511;-58
2021/08/19 04:16:19;;;;;;;12.02;4.35;;;;;;;;;;5073733;28;20424;-57
2021/08/19 04:18:44;;;;;;;8.85;4.85;;;;;;;;;;5073510;28;20817;-58
2021/08/19 04:21:10;;;;;;;11.02;5.18;;;;;;;;;;5077888;28;20725;-58
2021/08/19 04:23:35;;;;;;;13.82;5.35;;;;;;;;;;5073579;28;20036;-58
2021/08/19 04:26:00;;;;;;;10.07;5.18;;;;;;;;;;5077132;28;20534;-58
2021/08/19 04:28:26;;;;;;;5.13;4.30;;;;;;;;;;5074204;28;20149;-58
2021/08/19 04:30:51;;;;;;;7.07;5.35;;;;;;;;;;5075978;28;20024;-58
2021/08/19 04:33:16;;;;;;;3.92;3.58;;;;;;;;;;5078340;28;20095;-58
2021/08/19 04:35:42;;;;;;;16.45;5.25;;;;;;;;;;5072068;28;20020;-58
2021/08/19 04:38:07;;;;;;;9.48;4.10;;;;;;;;;;5074958;28;20596;-58
2021/08/19 04:40:33;;;;;;;7.55;4.47;;;;;;;;;;5075468;28;20099;-58
2021/08/19 04:42:58;;;;;;;7.25;5.20;;;;;;;;;;5071192;28;20075;-58
2021/08/19 04:45:23;;;;;;;9.55;5.72;;;;;;;;;;5075185;28;20472;-58
2021/08/19 04:47:48;;;;;;;9.45;5.30;;;;;;;;;;5074984;28;20032;-58
2021/08/19 04:50:14;;;;;;;6.75;4.35;;;;;;;;;;5073599;28;20121;-58
2021/08/19 04:52:39;;;;;;;7.57;5.63;;;;;;;;;;5069374;28;20443;-58
2021/08/19 04:55:05;;;;;;;9.60;4.10;;;;;;;;;;5075993;28;20471;-58
2021/08/19 04:57:31;;;;;;;13.25;5.45;;;;;;;;;;5074918;28;20088;-58
2021/08/19 04:59:56;;;;;;;7.20;4.28;;;;;;;;;;5073743;28;20162;-58
2021/08/19 05:02:21;;;;;;;10.07;6.43;;;;;;;;;;5074333;28;20045;-58
2021/08/19 05:04:47;;;;;;;8.88;4.95;;;;;;;;;;5076663;28;20365;-58
2021/08/19 05:07:12;;;;;;;15.45;4.28;;;;;;;;;;5071538;28;20082;-57
2021/08/19 05:09:37;;;;;;;8.98;5.03;;;;;;;;;;5075944;28;20115;-58
2021/08/19 05:12:03;;;;;;;9.25;4.78;;;;;;;;;;5069939;28;20380;-58
2021/08/19 05:14:28;;;;;;;7.32;5.35;;;;;;;;;;5075110;28;20023;-58
2021/08/19 05:16:53;;;;;;;6.38;5.25;;;;;;;;;;5073077;28;20013;-58
2021/08/19 05:19:18;;;;;;;12.63;8.95;;;;;;;;;;5072715;28;20124;-58
2021/08/19 05:21:44;;;;;;;7.55;6.10;;;;;;;;;;5076439;28;20468;-58
2021/08/19 05:24:09;;;;;;;16.20;7.72;;;;;;;;;;5075770;28;20027;-57
2021/08/19 05:26:35;;;;;;;8.25;5.68;;;;;;;;;;5069310;28;20020;-58
2021/08/19 05:29:00;;;;;;;6.60;5.30;;;;;;;;;;5077198;28;20449;-57
2021/08/19 05:31:25;;;;;;;10.68;5.97;;;;;;;;;;5075335;28;20090;-58
2021/08/19 05:33:51;;;;;;;11.68;7.32;;;;;;;;;;5071332;28;20515;-58
2021/08/19 05:36:16;;;;;;;14.73;5.35;;;;;;;;;;5072590;28;20046;-58
2021/08/19 05:38:41;;;;;;;17.15;6.57;;;;;;;;;;5073206;28;20019;-58
2021/08/19 05:41:07;;;;;;;9.23;5.85;;;;;;;;;;5072906;28;20024;-58
2021/08/19 05:43:32;;;;;;;8.65;6.28;;;;;;;;;;5077254;28;20081;-58
2021/08/19 05:45:58;;;;;;;6.82;4.18;;;;;;;;;;5075247;28;20365;-58
2021/08/19 05:48:24;;;;;;;5.20;4.10;;;;;;;;;;5076003;28;20058;-58
2021/08/19 05:50:49;;;;;;;10.18;4.30;;;;;;;;;;5074704;28;20020;-58
2021/08/19 05:53:15;;;;;;;7.60;5.78;;;;;;;;;;5074435;28;20016;-58
2021/08/19 05:55:40;;;;;;;15.00;8.75;;;;;;;;;;5075695;28;20031;-47
2021/08/19 05:58:05;;;;;;;11.57;5.72;;;;;;;;;;5074371;28;20028;-48
2021/08/19 06:00:30;;;;;;;6.50;5.10;;;;;;;;;;5066983;28;20495;-49
2021/08/19 06:02:56;;;;;;;13.88;5.25;;;;;;;;;;5070843;28;20045;-49
2021/08/19 06:05:21;;;;;;;11.07;5.82;;;;;;;;;;5072700;28;20030;-49
2021/08/19 06:07:46;;;;;;;13.23;6.80;;;;;;;;;;5072003;28;20020;-46
2021/08/19 06:10:12;;;;;;;8.27;5.90;;;;;;;;;;5070887;28;20511;-46
2021/08/19 06:12:38;;;;;;;9.43;5.35;;;;;;;;;;5072624;28;20012;-46
2021/08/19 06:15:04;;;;;;;7.63;5.57;;;;;;;;;;5070505;28;20054;-49
2021/08/19 06:17:29;;;;;;;14.07;5.07;;;;;;;;;;5075991;28;20479;-50
2021/08/19 06:19:55;;;;;;;11.13;6.68;;;;;;;;;;5073983;28;20066;-45
2021/08/19 06:22:20;;;;;;;19.80;17.95;;;;;;;;;;5074133;28;20047;-49
2021/08/19 06:24:45;;;;;;;13.07;7.45;;;;;;;;;;5075463;28;20024;-47
2021/08/19 06:27:11;;;;;;;7.65;5.30;;;;;;;;;;5073800;28;20051;-46
2021/08/19 06:29:36;;;;;;;14.57;6.85;;;;;;;;;;5066781;28;20024;-45
2021/08/19 06:32:01;;;;;;;29.17;7.47;;;;;;;;;;5071408;28;20012;-46
2021/08/19 06:34:28;;;;;;;17.33;5.68;;;;;;;;;;5072613;28;20021;-46
2021/08/19 06:36:53;;;;;;;9.88;5.25;;;;;;;;;;5076648;28;20441;-49
2021/08/19 06:39:19;;;;;;;10.40;5.80;;;;;;;;;;5069119;28;20085;-47
2021/08/19 06:41:44;;;;;;;14.10;5.38;;;;;;;;;;5073329;28;20020;-48
2021/08/19 06:44:10;;;;;;;19.80;7.10;;;;;;;;;;5076266;28;20034;-48
2021/08/19 06:46:35;;;;;;;8.52;5.38;;;;;;;;;;5071348;28;20270;-49
2021/08/19 06:49:00;;;;;;;7.93;5.63;;;;;;;;;;5074550;28;20028;-50
2021/08/19 06:51:26;;;;;;;7.60;4.90;;;;;;;;;;5076447;28;20439;-50
2021/08/19 06:53:51;;;;;;;18.95;9.07;;;;;;;;;;5073674;28;20031;-48
2021/08/19 06:56:17;;;;;;;10.90;5.40;;;;;;;;;;5074150;28;20013;-47
2021/08/19 06:58:42;;;;;;;10.90;4.85;;;;;;;;;;5076234;28;20020;-45
2021/08/19 07:01:07;;;;;;;18.40;5.50;;;;;;;;;;5076703;28;20107;-50
2021/08/19 07:03:33;;;;;;;14.95;5.38;;;;;;;;;;5076845;28;20571;-46
2021/08/19 07:05:58;;;;;;;11.88;6.72;;;;;;;;;;5077344;28;20556;-46
2021/08/19 07:08:23;;;;;;;8.00;5.53;;;;;;;;;;5077368;28;20058;-49
2021/08/19 07:10:49;;;;;;;7.10;4.32;;;;;;;;;;5077600;28;20009;-47
2021/08/19 07:13:14;;;;;;;6.68;5.25;;;;;;;;;;5072586;28;20119;-46
2021/08/19 07:15:42;;;;;;;7.95;4.20;;;;;;;;;;5072271;28;20028;-47
2021/08/19 07:18:07;;;;;;;14.07;5.72;;;;;;;;;;5080088;28;20121;-50
2021/08/19 07:20:32;;;;;;;8.63;4.63;;;;;;;;;;5079396;28;20460;-51
2021/08/19 07:22:58;;;;;;;9.02;4.43;;;;;;;;;;5077064;28;20515;-47
2021/08/19 07:25:23;;;;;;;11.38;4.03;;;;;;;;;;5075258;28;20479;-50
2021/08/19 07:27:49;;;;;;;9.80;4.93;;;;;;;;;;5071653;28;20032;-52
2021/08/19 07:30:14;;;;;;;8.55;4.82;;;;;;;;;;5075841;28;20596;-49
2021/08/19 07:32:39;;;;;;;12.60;5.30;;;;;;;;;;5075282;28;20383;-48
2021/08/19 07:35:05;;;;;;;7.72;5.05;;;;;;;;;;5073232;28;20031;-50
2021/08/19 07:37:30;;;;;;;7.75;6.05;;;;;;;;;;5071691;28;20008;-51
2021/08/19 07:39:56;;;;;;;12.05;4.97;;;;;;;;;;5076898;28;20038;-49
2021/08/19 07:42:21;;;;;;;5.75;4.38;;;;;;;;;;5075270;28;20318;-50
2021/08/19 07:44:47;;;;;;;6.70;6.00;;;;;;;;;;5078862;28;20036;-50
2021/08/19 07:47:12;;;;;;;11.02;5.40;;;;;;;;;;5073396;28;20133;-47
2021/08/19 07:49:37;;;;;;;7.13;4.97;;;;;;;;;;5075092;28;20032;-51
2021/08/19 07:52:03;;;;;;;10.73;5.05;;;;;;;;;;5076030;28;20016;-50
2021/08/19 07:54:28;;;;;;;8.95;5.05;;;;;;;;;;5074619;28;20558;-48
2021/08/19 07:56:53;;;;;;;15.20;5.63;;;;;;;;;;5076486;28;20012;-51
2021/08/19 07:59:19;;;;;;;15.80;5.25;;;;;;;;;;5073987;28;20739;-47
2021/08/19 08:01:44;;;;;;;13.90;12.48;;;;;;;;;;5074432;28;20090;-51
2021/08/19 08:04:09;;;;;;;13.30;6.47;;;;;;;;;;5075225;28;20052;-49
2021/08/19 08:06:38;;;;;;;15.30;5.60;;;;;;;;;;5072969;28;20036;-46
2021/08/19 08:09:03;;;;;;;11.80;3.83;;;;;;;;;;5077823;28;20026;-50
2021/08/19 08:11:29;;;;;;;9.88;7.07;;;;;;;;;;5073629;28;20020;-47
2021/08/19 08:13:54;;;;;;;9.82;4.68;;;;;;;;;;5075890;28;20538;-52
2021/08/19 08:16:19;;;;;;;6.72;4.18;;;;;;;;;;5067482;28;20025;-47
2021/08/19 08:18:45;;;;;;;9.82;5.25;;;;;;;;;;5078939;28;20024;-48
2021/08/19 08:21:13;;;;;;;11.10;4.07;;;;;;;;;;5074266;28;20519;-46
2021/08/19 08:23:39;;;;;;;10.93;3.38;;;;;;;;;;5073933;28;20027;-48
2021/08/19 08:26:04;;;;;;;11.65;6.03;;;;;;;;;;5078162;28;20029;-45
2021/08/19 08:28:33;;;;;;;12.85;6.78;;;;;;;;;;5078774;28;20055;-48
2021/08/19 08:30:59;;;;;;;7.10;5.88;;;;;;;;;;5074530;28;20103;-48
2021/08/19 08:33:25;;;;;;;9.20;7.30;;;;;;;;;;5071894;28;20020;-46
2021/08/19 08:35:51;;;;;;;13.05;7.63;;;;;;;;;;5076171;28;20531;-50
2021/08/19 08:38:17;;;;;;;15.32;7.53;;;;;;;;;;5074832;28;20112;-47
2021/08/19 08:40:45;;;;;;;21.52;12.75;;;;;;;;;;5073599;28;20094;-58
2021/08/19 08:43:11;;;;;;;18.65;8.50;;;;;;;;;;5072725;28;21242;-47
2021/08/19 08:45:37;;;;;;;10.63;5.57;;;;;;;;;;5070441;28;20033;-50
2021/08/19 08:48:10;;;;;;;6.43;5.20;;;;;;;;;;5075800;28;20020;-51
2021/08/19 08:50:37;;;;;;;8.18;5.05;;;;;;;;;;5074492;28;20020;-51
2021/08/19 08:53:04;;;;;;;17.30;4.60;;;;;;;;;;5070141;28;20017;-44
2021/08/19 08:55:29;;;;;;;16.15;5.38;;;;;;;;;;5079186;28;20475;-50
2021/08/19 08:57:55;;;;;;;35.40;6.35;;;;;;;;;;5075432;28;20040;-50
2021/08/19 09:00:20;;;;;;;9.00;4.40;;;;;;;;;;5069772;28;20404;-45
2021/08/19 09:02:45;;;;;;;9.82;4.60;;;;;;;;;;5072306;28;20067;-49
2021/08/19 09:05:15;;;;;;;14.52;4.85;;;;;;;;;;5077119;28;20024;-46
2021/08/19 09:07:40;;;;;;;8.82;3.90;;;;;;;;;;5075090;28;20524;-42
2021/08/19 09:10:06;;;;;;;12.88;5.03;;;;;;;;;;5069191;28;20027;-45
2021/08/19 09:12:37;;;;;;;11.70;5.13;;;;;;;;;;5073348;28;20023;-44
2021/08/19 09:15:06;;;;;;;9.70;5.57;;;;;;;;;;5073690;28;20016;-49
2021/08/19 09:17:44;;;;;;;8.95;3.85;;;;;;;;;;5076503;28;20020;-43
2021/08/19 09:20:09;;;;;;;5.28;3.30;;;;;;;;;;5072052;28;20073;-43
2021/08/19 09:22:51;;;;;;;7.68;3.05;;;;;;;;;;5074431;28;20028;-46
2021/08/19 09:25:24;;;;;;;9.85;3.15;;;;;;;;;;5073693;28;20149;-41
2021/08/19 09:28:08;;;;;;;13.55;4.15;;;;;;;;;;5071152;28;20750;-46
2021/08/19 09:30:34;;;;;;;7.55;4.00;;;;;;;;;;5072033;28;20404;-41
2021/08/19 09:33:02;;;;;;;2.88;1.63;;;;;;;;;;5072834;28;20021;-42
2021/08/19 09:35:27;;;;;;;7.18;3.05;;;;;;;;;;5065921;28;20035;-43
2021/08/19 09:37:52;;;;;;;8.57;3.20;;;;;;;;;;5075695;28;20099;-49
2021/08/19 09:40:18;;;;;;;10.57;2.28;;;;;;;;;;5072560;28;20028;-46
2021/08/19 09:42:43;;;;;;;14.73;3.72;;;;;;;;;;5071779;28;20016;-48
2021/08/19 09:45:18;;;;;;;13.05;4.15;;;;;;;;;;5074518;28;20020;-49
2021/08/19 09:47:44;;;;;;;11.07;5.13;;;;;;;;;;5072584;28;20033;-48
2021/08/19 09:50:19;;;;;;;4.32;2.45;;;;;;;;;;5067999;28;20024;-51
2021/08/19 09:52:45;;;;;;;10.05;3.60;;;;;;;;;;5074761;28;20678;-48
2021/08/19 09:55:21;;;;;;;6.30;2.53;;;;;;;;;;5074563;28;20124;-48
2021/08/19 09:57:47;;;;;;;7.28;4.28;;;;;;;;;;5071900;28;20042;-51
2021/08/19 10:00:41;;;;;;;10.65;4.78;;;;;;;;;;5073912;28;20141;-52
2021/08/19 10:03:11;;;;;;;4.47;3.42;;;;;;;;;;5064557;28;20060;-51
2021/08/19 10:05:37;;;;;;;10.10;4.68;;;;;;;;;;5075115;28;20036;-51
2021/08/19 10:08:03;;;;;;;8.05;4.18;;;;;;;;;;5072611;28;20027;-52
2021/08/19 10:10:29;;;;;;;8.10;3.55;;;;;;;;;;5075611;28;20024;-50
2021/08/19 10:12:56;;;;;;;6.13;3.65;;;;;;;;;;5073448;28;20107;-48
2021/08/19 10:15:22;;;;;;;7.28;2.67;;;;;;;;;;5070593;28;20507;-47
2021/08/19 10:17:50;;;;;;;8.25;4.25;;;;;;;;;;5090666;28;20062;-45
2021/08/19 10:20:16;;;;;;;10.32;3.72;;;;;;;;;;5071723;28;20068;-48
2021/08/19 10:22:42;;;;;;;6.13;3.10;;;;;;;;;;5079341;28;20107;-47
2021/08/19 10:25:08;;;;;;;2.90;2.25;;;;;;;;;;5074106;28;20103;-44
2021/08/19 10:27:33;;;;;;;10.95;3.20;;;;;;;;;;5076775;28;20016;-44
2021/08/19 10:30:00;;;;;;;9.20;3.33;;;;;;;;;;5077531;28;20081;-50
2021/08/19 10:32:26;;;;;;;6.65;2.35;;;;;;;;;;5072867;28;20028;-49
2021/08/19 10:34:54;;;;;;;4.63;2.95;;;;;;;;;;5077532;28;20020;-46
2021/08/19 10:37:20;;;;;;;7.78;4.38;;;;;;;;;;5077556;28;20510;-48
2021/08/19 10:39:45;;;;;;;9.50;4.03;;;;;;;;;;5073562;28;20028;-50
2021/08/19 10:42:11;;;;;;;8.10;3.22;;;;;;;;;;5075846;28;20024;-48
2021/08/19 10:44:39;;;;;;;3.90;2.08;;;;;;;;;;5078661;28;20162;-48
2021/08/19 10:47:05;;;;;;;6.90;3.17;;;;;;;;;;5074998;28;20028;-49
2021/08/19 10:49:30;;;;;;;6.20;3.60;;;;;;;;;;5075916;28;20470;-52
2021/08/19 10:52:15;;;;;;;9.00;2.33;;;;;;;;;;5075521;28;20027;-43
2021/08/19 10:54:47;;;;;;;7.57;6.05;;;;;;;;;;5072720;28;20037;-42
2021/08/19 10:57:39;;;;;;;7.75;4.32;;;;;;;;;;5076756;28;20027;-44
2021/08/19 11:00:06;;;;;;;9.55;4.05;;;;;;;;;;5077366;28;20016;-47
2021/08/19 11:02:47;;;;;;;6.03;3.65;;;;;;;;;;5078995;28;20517;-49
2021/08/19 11:05:14;;;;;;;3.92;2.40;;;;;;;;;;5071630;28;20508;-52
2021/08/19 11:07:48;;;;;;;10.73;3.40;;;;;;;;;;5071401;28;20103;-52
2021/08/19 11:10:20;;;;;;;6.38;3.53;;;;;;;;;;5067395;28;20031;-49
2021/08/19 11:12:46;;;;;;;6.18;2.90;;;;;;;;;;5073750;28;20027;-48
2021/08/19 11:15:11;;;;;;;7.53;3.15;;;;;;;;;;5076789;28;20008;-49
2021/08/19 11:17:38;;;;;;;8.65;4.43;;;;;;;;;;5078262;28;20024;-50
2021/08/19 11:20:22;;;;;;;10.15;4.38;;;;;;;;;;5077791;28;20028;-47
2021/08/19 11:23:06;;;;;;;6.18;4.68;;;;;;;;;;5077759;28;20055;-50
2021/08/19 11:25:32;;;;;;;7.63;3.95;;;;;;;;;;5077793;28;20566;-49
2021/08/19 11:28:07;;;;;;;7.22;2.90;;;;;;;;;;5075961;28;20032;-51
2021/08/19 11:30:36;;;;;;;7.55;3.50;;;;;;;;;;5076841;28;20046;-51
2021/08/19 11:33:12;;;;;;;12.55;5.55;;;;;;;;;;5076572;28;20100;-46
2021/08/19 11:35:39;;;;;;;12.20;3.90;;;;;;;;;;5077109;28;20027;-48
2021/08/19 11:38:08;;;;;;;5.50;3.55;;;;;;;;;;5073740;28;20021;-47
2021/08/19 11:40:34;;;;;;;16.93;3.53;;;;;;;;;;5078058;28;20143;-50
2021/08/19 11:43:17;;;;;;;3.53;2.72;;;;;;;;;;5076476;28;20102;-52
2021/08/19 11:45:42;;;;;;;12.20;3.15;;;;;;;;;;5077695;28;20016;-48
2021/08/19 11:48:11;;;;;;;8.90;3.95;;;;;;;;;;5074671;28;20021;-51
2021/08/19 11:50:36;;;;;;;11.82;4.40;;;;;;;;;;5068916;28;20020;-51
2021/08/19 11:53:01;;;;;;;3.65;2.97;;;;;;;;;;5077178;28;20432;-51
2021/08/19 11:55:31;;;;;;;10.88;5.07;;;;;;;;;;5077488;28;20032;-49
2021/08/19 11:58:18;;;;;;;7.95;2.80;;;;;;;;;;5077949;28;20012;-50
2021/08/19 12:01:06;;;;;;;10.35;4.95;;;;;;;;;;5073629;28;20092;-50
2021/08/19 12:03:41;;;;;;;4.13;2.92;;;;;;;;;;5074633;28;20044;-46
2021/08/19 12:06:11;;;;;;;11.95;3.88;;;;;;;;;;5073990;28;20028;-47
2021/08/19 12:08:38;;;;;;;5.70;4.33;;;;;;;;;;5076300;28;20035;-50
2021/08/19 12:11:05;;;;;;;5.45;3.63;;;;;;;;;;5073893;28;20021;-47
2021/08/19 12:13:32;;;;;;;7.55;3.95;;;;;;;;;;5074828;28;20016;-47
2021/08/19 12:15:58;;;;;;;7.22;5.05;;;;;;;;;;5073950;28;20079;-50
2021/08/19 12:18:24;;;;;;;9.57;4.15;;;;;;;;;;5074290;28;20504;-49
2021/08/19 12:20:50;;;;;;;10.57;3.03;;;;;;;;;;5075534;28;20024;-50
2021/08/19 12:23:25;;;;;;;5.95;2.92;;;;;;;;;;5088652;28;20027;-47
2021/08/19 12:25:51;;;;;;;13.45;3.80;;;;;;;;;;5074710;28;20056;-49
2021/08/19 12:28:16;;;;;;;9.85;4.45;;;;;;;;;;5073833;28;20396;-48
2021/08/19 12:30:55;;;;;;;10.13;4.10;;;;;;;;;;5079771;28;20463;-48
2021/08/19 12:33:31;;;;;;;5.90;3.97;;;;;;;;;;5073502;28;20096;-48
2021/08/19 12:36:11;;;;;;;23.00;3.28;;;;;;;;;;5072392;28;20020;-46
2021/08/19 12:38:37;;;;;;;5.03;2.17;;;;;;;;;;5072637;28;20024;-48
2021/08/19 12:41:19;;;;;;;8.82;3.78;;;;;;;;;;5072722;28;20081;-47
2021/08/19 12:43:46;;;;;;;5.75;3.38;;;;;;;;;;5074961;28;20024;-48
2021/08/19 12:46:14;;;;;;;6.30;2.88;;;;;;;;;;5078042;28;20028;-53
2021/08/19 12:48:39;;;;;;;17.35;3.15;;;;;;;;;;5071450;28;20024;-48
2021/08/19 12:51:26;;;;;;;6.70;3.70;;;;;;;;;;5074272;28;20093;-51
2021/08/19 12:54:07;;;;;;;7.93;3.95;;;;;;;;;;5072776;28;20012;-52
2021/08/19 12:56:34;;;;;;;12.82;4.28;;;;;;;;;;5074288;28;20028;-47
2021/08/19 12:58:59;;;;;;;7.72;2.97;;;;;;;;;;5077185;28;20501;-51
2021/08/19 13:01:25;;;;;;;7.80;3.42;;;;;;;;;;5069932;28;20020;-52
2021/08/19 13:03:50;;;;;;;7.00;3.65;;;;;;;;;;5074790;28;20407;-52
2021/08/19 13:06:16;;;;;;;11.32;3.92;;;;;;;;;;5074516;28;20366;-53
2021/08/19 13:08:41;;;;;;;8.55;4.18;;;;;;;;;;5065846;28;20484;-51
2021/08/19 13:11:06;;;;;;;6.32;3.08;;;;;;;;;;5075312;28;20070;-49
2021/08/19 13:13:32;;;;;;;5.45;3.38;;;;;;;;;;5075123;28;20050;-48
2021/08/19 13:15:57;;;;;;;8.60;2.75;;;;;;;;;;5075339;28;20039;-49
2021/08/19 13:18:22;;;;;;;5.00;3.47;;;;;;;;;;5073876;28;20510;-48
2021/08/19 13:20:48;;;;;;;6.78;1.73;;;;;;;;;;5076451;28;20031;-46
2021/08/19 13:23:13;;;;;;;5.70;3.22;;;;;;;;;;5071714;28;20020;-49
2021/08/19 13:25:41;;;;;;;9.05;3.83;;;;;;;;;;5074633;28;20036;-46
2021/08/19 13:28:07;;;;;;;10.65;4.50;;;;;;;;;;5072389;28;20028;-46
2021/08/19 13:30:32;;;;;;;5.85;2.88;;;;;;;;;;5073275;28;20082;-44
2021/08/19 13:32:58;;;;;;;6.05;3.35;;;;;;;;;;5073477;28;20420;-46
2021/08/19 13:35:24;;;;;;;11.68;2.55;;;;;;;;;;5071267;28;20115;-48
2021/08/19 13:37:49;;;;;;;6.78;2.92;;;;;;;;;;5079561;28;20012;-50
2021/08/19 13:40:15;;;;;;;7.82;3.83;;;;;;;;;;5073971;28;20020;-51
2021/08/19 13:42:41;;;;;;;6.95;4.05;;;;;;;;;;5075255;28;20479;-52
2021/08/19 13:45:06;;;;;;;6.75;3.47;;;;;;;;;;5073525;28;20036;-49
2021/08/19 13:47:32;;;;;;;5.57;3.10;;;;;;;;;;5070817;28;20035;-48
2021/08/19 13:49:57;;;;;;;5.80;3.42;;;;;;;;;;5068662;28;20024;-49
2021/08/19 13:52:22;;;;;;;3.88;2.65;;;;;;;;;;5072996;28;20070;-48
2021/08/19 13:54:47;;;;;;;12.05;4.28;;;;;;;;;;5075844;28;20028;-47
2021/08/19 13:57:13;;;;;;;5.93;2.80;;;;;;;;;;5078404;28;20047;-46
2021/08/19 13:59:38;;;;;;;12.85;4.22;;;;;;;;;;5074719;28;20123;-49
2021/08/19 14:02:04;;;;;;;5.38;3.97;;;;;;;;;;5079881;28;20103;-45
2021/08/19 14:04:30;;;;;;;6.07;3.55;;;;;;;;;;5079190;28;20111;-50
2021/08/19 14:06:55;;;;;;;17.35;4.40;;;;;;;;;;5078613;28;20108;-52
2021/08/19 14:09:20;;;;;;;4.30;3.40;;;;;;;;;;5080386;28;20560;-51
2021/08/19 14:11:45;;;;;;;23.58;4.88;;;;;;;;;;5078264;28;20384;-52
2021/08/19 14:14:11;;;;;;;7.18;3.53;;;;;;;;;;5075905;28;20525;-49
2021/08/19 14:16:36;;;;;;;21.90;4.45;;;;;;;;;;5075914;28;20023;-50
2021/08/19 14:19:02;;;;;;;6.70;3.65;;;;;;;;;;5076892;28;20840;-49
2021/08/19 14:21:27;;;;;;;3.80;3.40;;;;;;;;;;5072986;28;20032;-50
2021/08/19 14:23:53;;;;;;;10.90;3.75;;;;;;;;;;5076146;28;20048;-52
2021/08/19 14:26:18;;;;;;;5.35;4.15;;;;;;;;;;5078964;28;20066;-50
2021/08/19 14:28:43;;;;;;;6.90;2.65;;;;;;;;;;5076741;28;20021;-48
2021/08/19 14:31:09;;;;;;;9.00;3.72;;;;;;;;;;5080828;28;20016;-48
2021/08/19 14:33:35;;;;;;;10.82;3.17;;;;;;;;;;5073289;28;20476;-52
2021/08/19 14:36:03;;;;;;;7.18;4.20;;;;;;;;;;5065569;28;20033;-50